sensor_id;sensor_type;location;lat;lon;timestamp;temperature;humidity
6110;DHT22;3085;49.444;11.054;2023-11-21T00:01:59;9.00;99.90
6110;DHT22;3085;49.444;11.054;2023-11-21T00:04:26;9.00;99.90
6110;DHT22;3085;49.444;11.054;2023-11-21T00:06:55;9.00;99.90
6110;DHT22;3085;49.444;11.054;2023-11-21T00:09:22;9.00;99.90
6110;DHT22;3085;49.444;11.054;2023-11-21T00:11:49;9.10;99.90
6110;DHT22;3085;49.444;11.054;2023-11-21T00:14:16;9.10;99.90
6110;DHT22;3085;49.444;11.054;2023-11-21T00:16:43;9.10;99.90
6110;DHT22;3085;49.444;11.054;2023-11-21T00:19:09;9.10;99.90
6110;DHT22;3085;49.444;11.054;2023-11-21T00:21:36;9.10;99.90
6110;DHT22;3085;49.444;11.054;2023-11-21T00:24:05;9.10;99.90
6110;DHT22;3085;49.444;11.054;2023-11-21T00:26:33;9.10;99.90
6110;DHT22;3085;49.444;11.054;2023-11-21T00:29:02;9.10;99.90
6110;DHT22;3085;49.444;11.054;2023-11-21T00:31:28;9.10;99.90
6110;DHT22;3085;49.444;11.054;2023-11-21T00:33:56;9.00;99.90
6110;DHT22;3085;49.444;11.054;2023-11-21T00:36:23;8.90;99.90
6110;DHT22;3085;49.444;11.054;2023-11-21T00:38:51;8.90;99.90
6110;DHT22;3085;49.444;11.054;2023-11-21T00:41:19;9.00;99.90
6110;DHT22;3085;49.444;11.054;2023-11-21T00:43:46;9.00;99.90
6110;DHT22;3085;49.444;11.054;2023-11-21T00:46:12;8.90;99.90
6110;DHT22;3085;49.444;11.054;2023-11-21T00:48:39;8.90;99.90
6110;DHT22;3085;49.444;11.054;2023-11-21T00:51:06;8.90;99.90
6110;DHT22;3085;49.444;11.054;2023-11-21T00:53:33;9.00;99.90
6110;DHT22;3085;49.444;11.054;2023-11-21T00:55:59;8.90;99.90
6110;DHT22;3085;49.444;11.054;2023-11-21T00:58:28;8.90;99.90
6110;DHT22;3085;49.444;11.054;2023-11-21T01:00:55;9.10;99.90
6110;DHT22;3085;49.444;11.054;2023-11-21T01:03:23;8.90;99.90
6110;DHT22;3085;49.444;11.054;2023-11-21T01:05:50;8.80;99.90
6110;DHT22;3085;49.444;11.054;2023-11-21T01:08:16;8.80;99.90
6110;DHT22;3085;49.444;11.054;2023-11-21T01:10:43;8.80;99.90
6110;DHT22;3085;49.444;11.054;2023-11-21T01:13:11;8.80;99.90
6110;DHT22;3085;49.444;11.054;2023-11-21T01:15:39;8.80;99.90
6110;DHT22;3085;49.444;11.054;2023-11-21T01:18:05;8.80;99.90
6110;DHT22;3085;49.444;11.054;2023-11-21T01:20:33;8.80;99.90
6110;DHT22;3085;49.444;11.054;2023-11-21T01:22:59;8.70;99.90
6110;DHT22;3085;49.444;11.054;2023-11-21T01:25:26;8.80;99.90
6110;DHT22;3085;49.444;11.054;2023-11-21T01:27:53;8.90;99.90
6110;DHT22;3085;49.444;11.054;2023-11-21T01:30:20;8.80;99.90
6110;DHT22;3085;49.444;11.054;2023-11-21T01:32:48;8.70;99.90
6110;DHT22;3085;49.444;11.054;2023-11-21T01:35:15;8.70;99.90
6110;DHT22;3085;49.444;11.054;2023-11-21T01:37:42;8.80;99.90
6110;DHT22;3085;49.444;11.054;2023-11-21T01:40:10;8.80;99.90
6110;DHT22;3085;49.444;11.054;2023-11-21T01:42:39;8.70;99.90
6110;DHT22;3085;49.444;11.054;2023-11-21T01:45:07;8.70;99.90
6110;DHT22;3085;49.444;11.054;2023-11-21T01:47:35;8.80;99.90
6110;DHT22;3085;49.444;11.054;2023-11-21T01:50:04;8.70;99.90
6110;DHT22;3085;49.444;11.054;2023-11-21T01:52:33;8.70;99.90
6110;DHT22;3085;49.444;11.054;2023-11-21T01:55:01;8.70;99.90
6110;DHT22;3085;49.444;11.054;2023-11-21T01:57:28;8.70;99.90
6110;DHT22;3085;49.444;11.054;2023-11-21T01:59:56;8.80;99.90
6110;DHT22;3085;49.444;11.054;2023-11-21T02:02:25;8.80;99.90
6110;DHT22;3085;49.444;11.054;2023-11-21T02:04:51;8.80;99.90
6110;DHT22;3085;49.444;11.054;2023-11-21T02:07:20;8.80;99.90
6110;DHT22;3085;49.444;11.054;2023-11-21T02:09:49;8.70;99.90
6110;DHT22;3085;49.444;11.054;2023-11-21T02:12:16;8.80;99.90
6110;DHT22;3085;49.444;11.054;2023-11-21T02:14:42;8.70;99.90
6110;DHT22;3085;49.444;11.054;2023-11-21T02:17:10;8.70;99.90
6110;DHT22;3085;49.444;11.054;2023-11-21T02:19:38;8.80;99.90
6110;DHT22;3085;49.444;11.054;2023-11-21T02:22:06;8.70;99.90
6110;DHT22;3085;49.444;11.054;2023-11-21T02:24:34;8.80;99.90
6110;DHT22;3085;49.444;11.054;2023-11-21T02:27:02;8.70;99.90
6110;DHT22;3085;49.444;11.054;2023-11-21T02:29:29;8.60;99.90
6110;DHT22;3085;49.444;11.054;2023-11-21T02:31:55;8.70;99.90
6110;DHT22;3085;49.444;11.054;2023-11-21T02:34:23;8.80;99.90
6110;DHT22;3085;49.444;11.054;2023-11-21T02:36:50;8.70;99.90
6110;DHT22;3085;49.444;11.054;2023-11-21T02:39:17;8.80;99.90
6110;DHT22;3085;49.444;11.054;2023-11-21T02:41:48;8.70;99.90
6110;DHT22;3085;49.444;11.054;2023-11-21T02:44:15;8.70;99.90
6110;DHT22;3085;49.444;11.054;2023-11-21T02:46:42;8.80;99.90
6110;DHT22;3085;49.444;11.054;2023-11-21T02:49:09;8.90;99.90
6110;DHT22;3085;49.444;11.054;2023-11-21T02:51:36;8.70;99.90
6110;DHT22;3085;49.444;11.054;2023-11-21T02:54:03;8.50;99.90
6110;DHT22;3085;49.444;11.054;2023-11-21T02:56:32;8.70;99.90
6110;DHT22;3085;49.444;11.054;2023-11-21T02:59:01;8.70;99.90
6110;DHT22;3085;49.444;11.054;2023-11-21T03:01:28;8.80;99.90
6110;DHT22;3085;49.444;11.054;2023-11-21T03:03:55;8.80;99.90
6110;DHT22;3085;49.444;11.054;2023-11-21T03:06:22;8.80;99.90
6110;DHT22;3085;49.444;11.054;2023-11-21T03:08:49;8.80;99.90
6110;DHT22;3085;49.444;11.054;2023-11-21T03:11:16;8.90;99.90
6110;DHT22;3085;49.444;11.054;2023-11-21T03:13:43;8.80;99.90
6110;DHT22;3085;49.444;11.054;2023-11-21T03:16:12;8.90;99.90
6110;DHT22;3085;49.444;11.054;2023-11-21T03:18:39;8.90;99.90
6110;DHT22;3085;49.444;11.054;2023-11-21T03:21:06;8.90;99.90
6110;DHT22;3085;49.444;11.054;2023-11-21T03:23:34;8.90;99.90
6110;DHT22;3085;49.444;11.054;2023-11-21T03:26:01;8.70;99.90
6110;DHT22;3085;49.444;11.054;2023-11-21T03:28:27;8.70;99.90
6110;DHT22;3085;49.444;11.054;2023-11-21T03:30:55;8.80;99.90
6110;DHT22;3085;49.444;11.054;2023-11-21T03:33:24;8.80;99.90
6110;DHT22;3085;49.444;11.054;2023-11-21T03:35:50;8.80;99.90
6110;DHT22;3085;49.444;11.054;2023-11-21T03:38:18;8.80;99.90
6110;DHT22;3085;49.444;11.054;2023-11-21T03:40:45;8.80;99.90
6110;DHT22;3085;49.444;11.054;2023-11-21T03:43:12;8.70;99.90
6110;DHT22;3085;49.444;11.054;2023-11-21T03:45:39;8.80;99.90
6110;DHT22;3085;49.444;11.054;2023-11-21T03:48:06;8.80;99.90
6110;DHT22;3085;49.444;11.054;2023-11-21T03:50:34;8.80;99.90
6110;DHT22;3085;49.444;11.054;2023-11-21T03:53:01;8.80;99.90
6110;DHT22;3085;49.444;11.054;2023-11-21T03:55:29;8.80;99.90
6110;DHT22;3085;49.444;11.054;2023-11-21T03:57:56;8.80;99.90
6110;DHT22;3085;49.444;11.054;2023-11-21T04:00:24;8.80;99.90
6110;DHT22;3085;49.444;11.054;2023-11-21T04:02:52;8.80;99.90
6110;DHT22;3085;49.444;11.054;2023-11-21T04:05:20;8.70;99.90
6110;DHT22;3085;49.444;11.054;2023-11-21T04:07:48;8.60;99.90
6110;DHT22;3085;49.444;11.054;2023-11-21T04:10:15;8.60;99.90
6110;DHT22;3085;49.444;11.054;2023-11-21T04:12:42;8.60;99.90
6110;DHT22;3085;49.444;11.054;2023-11-21T04:15:09;8.70;99.90
6110;DHT22;3085;49.444;11.054;2023-11-21T04:17:36;8.60;99.90
6110;DHT22;3085;49.444;11.054;2023-11-21T04:20:04;8.60;99.90
6110;DHT22;3085;49.444;11.054;2023-11-21T04:22:34;8.70;99.90
6110;DHT22;3085;49.444;11.054;2023-11-21T04:25:04;8.60;99.90
6110;DHT22;3085;49.444;11.054;2023-11-21T04:27:31;8.70;99.90
6110;DHT22;3085;49.444;11.054;2023-11-21T04:29:57;8.80;99.90
6110;DHT22;3085;49.444;11.054;2023-11-21T04:32:24;8.80;99.90
6110;DHT22;3085;49.444;11.054;2023-11-21T04:34:51;8.90;99.90
6110;DHT22;3085;49.444;11.054;2023-11-21T04:37:17;8.90;99.90
6110;DHT22;3085;49.444;11.054;2023-11-21T04:39:44;8.90;99.90
6110;DHT22;3085;49.444;11.054;2023-11-21T04:42:12;8.90;99.90
6110;DHT22;3085;49.444;11.054;2023-11-21T04:44:39;8.90;99.90
6110;DHT22;3085;49.444;11.054;2023-11-21T04:47:06;8.90;99.90
6110;DHT22;3085;49.444;11.054;2023-11-21T04:49:36;8.90;99.90
6110;DHT22;3085;49.444;11.054;2023-11-21T04:52:03;8.80;99.90
6110;DHT22;3085;49.444;11.054;2023-11-21T04:54:30;8.90;99.90
6110;DHT22;3085;49.444;11.054;2023-11-21T04:56:57;8.90;99.90
6110;DHT22;3085;49.444;11.054;2023-11-21T04:59:25;8.90;99.90
6110;DHT22;3085;49.444;11.054;2023-11-21T05:01:52;9.00;99.90
6110;DHT22;3085;49.444;11.054;2023-11-21T05:04:19;9.00;99.90
6110;DHT22;3085;49.444;11.054;2023-11-21T05:06:47;8.90;99.90
6110;DHT22;3085;49.444;11.054;2023-11-21T05:09:15;8.90;99.90
6110;DHT22;3085;49.444;11.054;2023-11-21T05:11:41;8.90;99.90
6110;DHT22;3085;49.444;11.054;2023-11-21T05:14:08;9.00;99.90
6110;DHT22;3085;49.444;11.054;2023-11-21T05:16:36;9.00;99.90
6110;DHT22;3085;49.444;11.054;2023-11-21T05:19:03;8.90;99.90
6110;DHT22;3085;49.444;11.054;2023-11-21T05:21:31;9.00;99.90
6110;DHT22;3085;49.444;11.054;2023-11-21T05:23:58;8.80;99.90
6110;DHT22;3085;49.444;11.054;2023-11-21T05:26:25;8.90;99.90
6110;DHT22;3085;49.444;11.054;2023-11-21T05:28:52;8.80;99.90
6110;DHT22;3085;49.444;11.054;2023-11-21T05:31:18;8.80;99.90
6110;DHT22;3085;49.444;11.054;2023-11-21T05:33:47;8.80;99.90
6110;DHT22;3085;49.444;11.054;2023-11-21T05:36:13;8.80;99.90
6110;DHT22;3085;49.444;11.054;2023-11-21T05:38:40;8.80;99.90
6110;DHT22;3085;49.444;11.054;2023-11-21T05:41:07;8.80;99.90
6110;DHT22;3085;49.444;11.054;2023-11-21T05:43:36;8.90;99.90
6110;DHT22;3085;49.444;11.054;2023-11-21T05:46:03;9.40;99.90
6110;DHT22;3085;49.444;11.054;2023-11-21T05:48:30;8.80;99.90
6110;DHT22;3085;49.444;11.054;2023-11-21T05:50:58;8.80;99.90
6110;DHT22;3085;49.444;11.054;2023-11-21T05:53:25;8.90;99.90
6110;DHT22;3085;49.444;11.054;2023-11-21T05:55:51;8.90;99.90
6110;DHT22;3085;49.444;11.054;2023-11-21T05:58:18;8.90;99.90
6110;DHT22;3085;49.444;11.054;2023-11-21T06:00:45;9.00;99.90
6110;DHT22;3085;49.444;11.054;2023-11-21T06:03:11;9.00;99.90
6110;DHT22;3085;49.444;11.054;2023-11-21T06:05:38;8.90;99.90
6110;DHT22;3085;49.444;11.054;2023-11-21T06:08:06;9.00;99.90
6110;DHT22;3085;49.444;11.054;2023-11-21T06:10:34;9.00;99.90
6110;DHT22;3085;49.444;11.054;2023-11-21T06:13:00;9.00;99.90
6110;DHT22;3085;49.444;11.054;2023-11-21T06:15:29;9.00;99.90
6110;DHT22;3085;49.444;11.054;2023-11-21T06:17:56;9.00;99.90
6110;DHT22;3085;49.444;11.054;2023-11-21T06:20:23;9.00;99.90
6110;DHT22;3085;49.444;11.054;2023-11-21T06:22:50;9.00;99.90
6110;DHT22;3085;49.444;11.054;2023-11-21T06:25:18;9.00;99.90
6110;DHT22;3085;49.444;11.054;2023-11-21T06:27:46;9.10;99.90
6110;DHT22;3085;49.444;11.054;2023-11-21T06:30:14;9.00;99.90
6110;DHT22;3085;49.444;11.054;2023-11-21T06:32:42;9.10;99.90
6110;DHT22;3085;49.444;11.054;2023-11-21T06:35:11;9.00;99.90
6110;DHT22;3085;49.444;11.054;2023-11-21T06:37:38;9.10;99.90
6110;DHT22;3085;49.444;11.054;2023-11-21T06:40:06;9.00;99.90
6110;DHT22;3085;49.444;11.054;2023-11-21T06:42:35;9.10;99.90
6110;DHT22;3085;49.444;11.054;2023-11-21T06:45:04;9.20;99.90
6110;DHT22;3085;49.444;11.054;2023-11-21T06:47:31;9.20;99.90
6110;DHT22;3085;49.444;11.054;2023-11-21T06:49:59;9.30;99.90
6110;DHT22;3085;49.444;11.054;2023-11-21T06:52:26;9.30;99.90
6110;DHT22;3085;49.444;11.054;2023-11-21T06:54:52;9.30;99.90
6110;DHT22;3085;49.444;11.054;2023-11-21T06:57:20;9.30;99.90
6110;DHT22;3085;49.444;11.054;2023-11-21T06:59:48;9.30;99.90
6110;DHT22;3085;49.444;11.054;2023-11-21T07:02:15;9.30;99.90
6110;DHT22;3085;49.444;11.054;2023-11-21T07:04:43;9.20;99.90
6110;DHT22;3085;49.444;11.054;2023-11-21T07:07:10;9.20;99.90
6110;DHT22;3085;49.444;11.054;2023-11-21T07:09:37;9.20;99.90
6110;DHT22;3085;49.444;11.054;2023-11-21T07:12:04;9.20;99.90
6110;DHT22;3085;49.444;11.054;2023-11-21T07:14:33;9.30;99.90
6110;DHT22;3085;49.444;11.054;2023-11-21T07:17:01;9.20;99.90
6110;DHT22;3085;49.444;11.054;2023-11-21T07:19:27;9.20;99.90
6110;DHT22;3085;49.444;11.054;2023-11-21T07:21:54;9.20;99.90
6110;DHT22;3085;49.444;11.054;2023-11-21T07:24:21;9.20;99.90
6110;DHT22;3085;49.444;11.054;2023-11-21T07:26:48;9.20;99.90
6110;DHT22;3085;49.444;11.054;2023-11-21T07:29:15;9.20;99.90
6110;DHT22;3085;49.444;11.054;2023-11-21T07:31:41;9.30;99.90
6110;DHT22;3085;49.444;11.054;2023-11-21T07:34:09;9.20;99.90
6110;DHT22;3085;49.444;11.054;2023-11-21T07:36:37;9.30;99.90
6110;DHT22;3085;49.444;11.054;2023-11-21T07:39:04;9.20;99.90
6110;DHT22;3085;49.444;11.054;2023-11-21T07:41:32;9.10;99.90
6110;DHT22;3085;49.444;11.054;2023-11-21T07:43:58;9.10;99.90
6110;DHT22;3085;49.444;11.054;2023-11-21T07:46:26;9.10;99.90
6110;DHT22;3085;49.444;11.054;2023-11-21T07:48:53;9.20;99.90
6110;DHT22;3085;49.444;11.054;2023-11-21T07:51:22;9.20;99.90
6110;DHT22;3085;49.444;11.054;2023-11-21T07:53:48;9.20;99.90
6110;DHT22;3085;49.444;11.054;2023-11-21T07:56:15;9.10;99.90
6110;DHT22;3085;49.444;11.054;2023-11-21T07:58:43;9.00;99.90
6110;DHT22;3085;49.444;11.054;2023-11-21T08:01:10;9.10;99.90
6110;DHT22;3085;49.444;11.054;2023-11-21T08:03:37;9.00;99.90
6110;DHT22;3085;49.444;11.054;2023-11-21T08:06:04;9.10;99.90
6110;DHT22;3085;49.444;11.054;2023-11-21T08:08:32;9.10;99.90
6110;DHT22;3085;49.444;11.054;2023-11-21T08:10:59;9.20;99.90
6110;DHT22;3085;49.444;11.054;2023-11-21T08:13:28;9.20;99.90
6110;DHT22;3085;49.444;11.054;2023-11-21T08:15:56;9.20;99.90
6110;DHT22;3085;49.444;11.054;2023-11-21T08:18:27;9.10;99.90
6110;DHT22;3085;49.444;11.054;2023-11-21T08:20:54;9.20;99.90
6110;DHT22;3085;49.444;11.054;2023-11-21T08:23:21;9.30;99.90
6110;DHT22;3085;49.444;11.054;2023-11-21T08:25:52;9.20;99.90
6110;DHT22;3085;49.444;11.054;2023-11-21T08:28:20;9.20;99.90
6110;DHT22;3085;49.444;11.054;2023-11-21T08:30:47;9.20;99.90
6110;DHT22;3085;49.444;11.054;2023-11-21T08:33:14;9.30;99.90
6110;DHT22;3085;49.444;11.054;2023-11-21T08:35:41;9.20;99.90
6110;DHT22;3085;49.444;11.054;2023-11-21T08:38:07;9.30;99.90
6110;DHT22;3085;49.444;11.054;2023-11-21T08:40:35;9.20;99.90
6110;DHT22;3085;49.444;11.054;2023-11-21T08:43:03;9.20;99.90
6110;DHT22;3085;49.444;11.054;2023-11-21T08:45:31;9.30;99.90
6110;DHT22;3085;49.444;11.054;2023-11-21T08:47:59;9.40;99.90
6110;DHT22;3085;49.444;11.054;2023-11-21T08:50:26;9.20;99.90
6110;DHT22;3085;49.444;11.054;2023-11-21T08:52:53;9.30;99.90
6110;DHT22;3085;49.444;11.054;2023-11-21T08:55:21;9.10;99.90
6110;DHT22;3085;49.444;11.054;2023-11-21T08:57:48;9.40;99.90
6110;DHT22;3085;49.444;11.054;2023-11-21T09:00:16;9.20;99.90
6110;DHT22;3085;49.444;11.054;2023-11-21T09:02:44;9.00;99.90
6110;DHT22;3085;49.444;11.054;2023-11-21T09:05:12;9.10;99.90
6110;DHT22;3085;49.444;11.054;2023-11-21T09:07:41;9.10;99.90
6110;DHT22;3085;49.444;11.054;2023-11-21T09:10:08;9.10;99.90
6110;DHT22;3085;49.444;11.054;2023-11-21T09:12:36;9.00;99.90
6110;DHT22;3085;49.444;11.054;2023-11-21T09:15:04;9.10;99.90
6110;DHT22;3085;49.444;11.054;2023-11-21T09:17:33;9.10;99.90
6110;DHT22;3085;49.444;11.054;2023-11-21T09:20:00;9.10;99.90
6110;DHT22;3085;49.444;11.054;2023-11-21T09:22:28;9.20;99.90
6110;DHT22;3085;49.444;11.054;2023-11-21T09:24:57;9.10;99.90
6110;DHT22;3085;49.444;11.054;2023-11-21T09:27:24;9.00;99.90
6110;DHT22;3085;49.444;11.054;2023-11-21T09:29:52;8.90;99.90
6110;DHT22;3085;49.444;11.054;2023-11-21T09:32:20;9.00;99.90
6110;DHT22;3085;49.444;11.054;2023-11-21T09:34:48;9.00;99.90
6110;DHT22;3085;49.444;11.054;2023-11-21T09:37:15;9.00;99.90
6110;DHT22;3085;49.444;11.054;2023-11-21T09:39:42;9.00;99.90
6110;DHT22;3085;49.444;11.054;2023-11-21T09:42:12;9.10;99.90
6110;DHT22;3085;49.444;11.054;2023-11-21T09:44:46;9.00;99.90
6110;DHT22;3085;49.444;11.054;2023-11-21T09:47:15;9.10;99.90
6110;DHT22;3085;49.444;11.054;2023-11-21T09:49:45;9.20;99.90
6110;DHT22;3085;49.444;11.054;2023-11-21T09:52:21;9.30;99.90
6110;DHT22;3085;49.444;11.054;2023-11-21T09:54:50;9.30;99.90
6110;DHT22;3085;49.444;11.054;2023-11-21T09:57:19;9.10;99.90
6110;DHT22;3085;49.444;11.054;2023-11-21T09:59:50;9.40;99.90
6110;DHT22;3085;49.444;11.054;2023-11-21T10:02:17;9.30;99.90
6110;DHT22;3085;49.444;11.054;2023-11-21T10:04:46;9.20;99.90
6110;DHT22;3085;49.444;11.054;2023-11-21T10:07:17;9.20;99.90
6110;DHT22;3085;49.444;11.054;2023-11-21T10:09:46;9.10;99.90
6110;DHT22;3085;49.444;11.054;2023-11-21T10:12:15;9.50;99.90
6110;DHT22;3085;49.444;11.054;2023-11-21T10:14:42;9.10;99.90
6110;DHT22;3085;49.444;11.054;2023-11-21T10:17:10;9.30;99.90
6110;DHT22;3085;49.444;11.054;2023-11-21T10:19:39;9.30;99.90
6110;DHT22;3085;49.444;11.054;2023-11-21T10:22:06;9.40;99.90
6110;DHT22;3085;49.444;11.054;2023-11-21T10:24:35;9.30;99.90
6110;DHT22;3085;49.444;11.054;2023-11-21T10:27:04;9.40;99.90
6110;DHT22;3085;49.444;11.054;2023-11-21T10:29:31;9.40;99.90
6110;DHT22;3085;49.444;11.054;2023-11-21T10:32:02;9.40;99.90
6110;DHT22;3085;49.444;11.054;2023-11-21T10:34:29;9.40;99.90
6110;DHT22;3085;49.444;11.054;2023-11-21T10:36:56;9.50;99.90
6110;DHT22;3085;49.444;11.054;2023-11-21T10:39:24;9.50;99.90
6110;DHT22;3085;49.444;11.054;2023-11-21T10:41:55;9.50;99.90
6110;DHT22;3085;49.444;11.054;2023-11-21T10:44:22;9.60;99.90
6110;DHT22;3085;49.444;11.054;2023-11-21T10:46:50;9.70;99.90
6110;DHT22;3085;49.444;11.054;2023-11-21T10:49:17;9.60;99.90
6110;DHT22;3085;49.444;11.054;2023-11-21T10:51:45;9.70;99.90
6110;DHT22;3085;49.444;11.054;2023-11-21T10:54:17;9.80;99.90
6110;DHT22;3085;49.444;11.054;2023-11-21T10:56:45;9.70;99.90
6110;DHT22;3085;49.444;11.054;2023-11-21T10:59:13;9.80;99.90
6110;DHT22;3085;49.444;11.054;2023-11-21T11:01:42;9.70;99.90
6110;DHT22;3085;49.444;11.054;2023-11-21T11:04:11;9.90;99.90
6110;DHT22;3085;49.444;11.054;2023-11-21T11:06:43;9.50;99.90
6110;DHT22;3085;49.444;11.054;2023-11-21T11:09:10;9.60;99.90
6110;DHT22;3085;49.444;11.054;2023-11-21T11:11:39;9.60;99.90
6110;DHT22;3085;49.444;11.054;2023-11-21T11:14:11;9.60;99.90
6110;DHT22;3085;49.444;11.054;2023-11-21T11:16:41;9.80;99.90
6110;DHT22;3085;49.444;11.054;2023-11-21T11:19:08;10.00;99.90
6110;DHT22;3085;49.444;11.054;2023-11-21T11:21:46;9.90;99.90
6110;DHT22;3085;49.444;11.054;2023-11-21T11:24:33;9.90;99.90
6110;DHT22;3085;49.444;11.054;2023-11-21T11:27:09;9.90;99.90
6110;DHT22;3085;49.444;11.054;2023-11-21T11:29:46;9.80;99.90
6110;DHT22;3085;49.444;11.054;2023-11-21T11:32:24;9.80;99.90
6110;DHT22;3085;49.444;11.054;2023-11-21T11:34:57;9.80;99.90
6110;DHT22;3085;49.444;11.054;2023-11-21T11:37:25;9.90;99.90
6110;DHT22;3085;49.444;11.054;2023-11-21T11:39:53;9.60;99.90
6110;DHT22;3085;49.444;11.054;2023-11-21T11:42:22;9.70;99.90
6110;DHT22;3085;49.444;11.054;2023-11-21T11:44:51;9.70;99.90
6110;DHT22;3085;49.444;11.054;2023-11-21T11:47:21;9.70;99.90
6110;DHT22;3085;49.444;11.054;2023-11-21T11:50:02;9.70;99.90
6110;DHT22;3085;49.444;11.054;2023-11-21T11:52:40;9.70;99.90
6110;DHT22;3085;49.444;11.054;2023-11-21T11:55:08;9.60;99.90
6110;DHT22;3085;49.444;11.054;2023-11-21T11:57:39;9.60;99.90
6110;DHT22;3085;49.444;11.054;2023-11-21T12:00:14;9.50;99.90
6110;DHT22;3085;49.444;11.054;2023-11-21T12:02:46;9.60;99.90
6110;DHT22;3085;49.444;11.054;2023-11-21T12:05:14;9.60;99.90
6110;DHT22;3085;49.444;11.054;2023-11-21T12:07:45;9.60;99.90
6110;DHT22;3085;49.444;11.054;2023-11-21T12:10:14;9.60;99.90
6110;DHT22;3085;49.444;11.054;2023-11-21T12:12:44;9.50;99.90
6110;DHT22;3085;49.444;11.054;2023-11-21T12:15:11;9.50;99.90
6110;DHT22;3085;49.444;11.054;2023-11-21T12:17:39;9.60;99.90
6110;DHT22;3085;49.444;11.054;2023-11-21T12:20:09;9.50;99.90
6110;DHT22;3085;49.444;11.054;2023-11-21T12:22:42;9.60;99.90
6110;DHT22;3085;49.444;11.054;2023-11-21T12:25:09;9.70;99.90
6110;DHT22;3085;49.444;11.054;2023-11-21T12:27:35;9.70;99.90
6110;DHT22;3085;49.444;11.054;2023-11-21T12:30:02;9.70;99.90
6110;DHT22;3085;49.444;11.054;2023-11-21T12:32:30;9.70;99.90
6110;DHT22;3085;49.444;11.054;2023-11-21T12:34:57;9.60;99.90
6110;DHT22;3085;49.444;11.054;2023-11-21T12:37:25;9.50;99.90
6110;DHT22;3085;49.444;11.054;2023-11-21T12:39:52;9.50;99.90
6110;DHT22;3085;49.444;11.054;2023-11-21T12:42:23;9.70;99.90
6110;DHT22;3085;49.444;11.054;2023-11-21T12:45:07;9.60;99.90
6110;DHT22;3085;49.444;11.054;2023-11-21T12:47:34;9.60;99.90
6110;DHT22;3085;49.444;11.054;2023-11-21T12:50:02;9.60;99.90
6110;DHT22;3085;49.444;11.054;2023-11-21T12:52:33;9.60;99.90
6110;DHT22;3085;49.444;11.054;2023-11-21T12:54:59;9.60;99.90
6110;DHT22;3085;49.444;11.054;2023-11-21T12:57:28;9.50;99.90
6110;DHT22;3085;49.444;11.054;2023-11-21T12:59:57;9.60;99.90
6110;DHT22;3085;49.444;11.054;2023-11-21T13:02:26;9.50;99.90
6110;DHT22;3085;49.444;11.054;2023-11-21T13:04:53;9.50;99.90
6110;DHT22;3085;49.444;11.054;2023-11-21T13:07:19;9.50;99.90
6110;DHT22;3085;49.444;11.054;2023-11-21T13:09:52;9.60;99.90
6110;DHT22;3085;49.444;11.054;2023-11-21T13:12:23;9.60;99.90
6110;DHT22;3085;49.444;11.054;2023-11-21T13:14:50;9.60;99.90
6110;DHT22;3085;49.444;11.054;2023-11-21T13:17:17;9.60;99.90
6110;DHT22;3085;49.444;11.054;2023-11-21T13:19:44;9.70;99.90
6110;DHT22;3085;49.444;11.054;2023-11-21T13:22:11;9.70;99.90
6110;DHT22;3085;49.444;11.054;2023-11-21T13:24:38;9.60;99.90
6110;DHT22;3085;49.444;11.054;2023-11-21T13:27:06;9.70;99.90
6110;DHT22;3085;49.444;11.054;2023-11-21T13:29:33;9.70;99.90
6110;DHT22;3085;49.444;11.054;2023-11-21T13:32:00;9.70;99.90
6110;DHT22;3085;49.444;11.054;2023-11-21T13:34:29;9.70;99.90
6110;DHT22;3085;49.444;11.054;2023-11-21T13:36:57;9.70;99.90
6110;DHT22;3085;49.444;11.054;2023-11-21T13:39:26;9.70;99.90
6110;DHT22;3085;49.444;11.054;2023-11-21T13:41:54;9.80;99.90
6110;DHT22;3085;49.444;11.054;2023-11-21T13:44:23;9.90;99.90
6110;DHT22;3085;49.444;11.054;2023-11-21T13:46:59;9.90;99.90
6110;DHT22;3085;49.444;11.054;2023-11-21T13:49:26;10.00;99.90
6110;DHT22;3085;49.444;11.054;2023-11-21T13:51:52;10.30;99.90
6110;DHT22;3085;49.444;11.054;2023-11-21T13:54:20;10.00;99.90
6110;DHT22;3085;49.444;11.054;2023-11-21T13:56:49;10.20;99.90
6110;DHT22;3085;49.444;11.054;2023-11-21T13:59:16;10.30;99.90
6110;DHT22;3085;49.444;11.054;2023-11-21T14:01:48;10.40;99.90
6110;DHT22;3085;49.444;11.054;2023-11-21T14:04:25;10.50;99.90
6110;DHT22;3085;49.444;11.054;2023-11-21T14:07:19;10.30;99.90
6110;DHT22;3085;49.444;11.054;2023-11-21T14:09:57;10.40;99.90
6110;DHT22;3085;49.444;11.054;2023-11-21T14:12:24;10.40;99.90
6110;DHT22;3085;49.444;11.054;2023-11-21T14:14:51;10.50;99.90
6110;DHT22;3085;49.444;11.054;2023-11-21T14:17:21;10.80;99.90
6110;DHT22;3085;49.444;11.054;2023-11-21T14:19:49;10.80;99.90
6110;DHT22;3085;49.444;11.054;2023-11-21T14:22:16;10.80;99.90
6110;DHT22;3085;49.444;11.054;2023-11-21T14:24:44;10.80;99.90
6110;DHT22;3085;49.444;11.054;2023-11-21T14:27:12;10.70;99.90
6110;DHT22;3085;49.444;11.054;2023-11-21T14:29:40;10.70;99.90
6110;DHT22;3085;49.444;11.054;2023-11-21T14:32:10;10.40;99.90
6110;DHT22;3085;49.444;11.054;2023-11-21T14:34:38;10.40;99.90
6110;DHT22;3085;49.444;11.054;2023-11-21T14:37:09;10.40;99.90
6110;DHT22;3085;49.444;11.054;2023-11-21T14:39:39;10.40;99.90
6110;DHT22;3085;49.444;11.054;2023-11-21T14:42:10;10.80;99.90
6110;DHT22;3085;49.444;11.054;2023-11-21T14:44:37;10.30;99.90
6110;DHT22;3085;49.444;11.054;2023-11-21T14:47:06;10.20;99.90
6110;DHT22;3085;49.444;11.054;2023-11-21T14:49:41;10.20;99.90
6110;DHT22;3085;49.444;11.054;2023-11-21T14:52:18;10.40;99.90
6110;DHT22;3085;49.444;11.054;2023-11-21T14:54:57;10.20;99.90
6110;DHT22;3085;49.444;11.054;2023-11-21T14:57:45;10.20;99.90
6110;DHT22;3085;49.444;11.054;2023-11-21T15:00:16;10.20;99.90
6110;DHT22;3085;49.444;11.054;2023-11-21T15:03:10;10.20;99.90
6110;DHT22;3085;49.444;11.054;2023-11-21T15:05:49;10.00;99.90
6110;DHT22;3085;49.444;11.054;2023-11-21T15:08:16;9.90;99.90
6110;DHT22;3085;49.444;11.054;2023-11-21T15:10:51;10.80;99.90
6110;DHT22;3085;49.444;11.054;2023-11-21T15:13:19;9.80;99.90
6110;DHT22;3085;49.444;11.054;2023-11-21T15:15:47;9.90;99.90
6110;DHT22;3085;49.444;11.054;2023-11-21T15:18:15;9.80;99.90
6110;DHT22;3085;49.444;11.054;2023-11-21T15:20:43;9.90;99.90
6110;DHT22;3085;49.444;11.054;2023-11-21T15:23:10;9.80;99.90
6110;DHT22;3085;49.444;11.054;2023-11-21T15:25:38;9.80;99.90
6110;DHT22;3085;49.444;11.054;2023-11-21T15:28:05;9.80;99.90
6110;DHT22;3085;49.444;11.054;2023-11-21T15:30:32;9.80;99.90
6110;DHT22;3085;49.444;11.054;2023-11-21T15:32:59;9.70;99.90
6110;DHT22;3085;49.444;11.054;2023-11-21T15:35:27;9.80;99.90
6110;DHT22;3085;49.444;11.054;2023-11-21T15:37:54;9.70;99.90
6110;DHT22;3085;49.444;11.054;2023-11-21T15:40:23;9.80;99.90
6110;DHT22;3085;49.444;11.054;2023-11-21T15:42:50;9.70;99.90
6110;DHT22;3085;49.444;11.054;2023-11-21T15:45:17;9.80;99.90
6110;DHT22;3085;49.444;11.054;2023-11-21T15:47:47;9.80;99.90
6110;DHT22;3085;49.444;11.054;2023-11-21T15:50:13;9.80;99.90
6110;DHT22;3085;49.444;11.054;2023-11-21T15:52:42;9.80;99.90
6110;DHT22;3085;49.444;11.054;2023-11-21T15:55:09;9.70;99.90
6110;DHT22;3085;49.444;11.054;2023-11-21T15:57:36;9.60;99.90
6110;DHT22;3085;49.444;11.054;2023-11-21T16:00:04;9.60;99.90
6110;DHT22;3085;49.444;11.054;2023-11-21T16:02:37;9.60;99.90
6110;DHT22;3085;49.444;11.054;2023-11-21T16:05:05;9.50;99.90
6110;DHT22;3085;49.444;11.054;2023-11-21T16:07:32;9.40;99.90